Time;durP1;ratioP1;P1;durP2;ratioP2;P2;SDS_P1;SDS_P2;PMS_P1;PMS_P2;Temp;Humidity;BMP_temperature;BMP_pressure;BME280_temperature;BME280_humidity;BME280_pressure;Samples;Min_cycle;Max_cycle;Signal;HPM_P1;HPM_P2
2019/05/01 00:05:52;;;;;;;26.4;18.3;;;;;;;6.6;75.54004;95295.45;;;;
2019/05/01 00:06:56;;;;;;;26.4;18.3;;;;;;;6.6;75.54004;95295.45;;;;
2019/05/01 00:07:58;;;;;;;26.4;18.3;;;;;;;6.6;75.54004;95295.45;;;;
2019/05/01 00:08:59;;;;;;;26.4;18.3;;;;;;;6.6;75.54004;95295.45;;;;
2019/05/01 00:10:00;;;;;;;26.4;18.3;;;;;;;6.6;75.54004;95295.45;;;;
2019/05/01 00:11:01;;;;;;;26.8;18.45;;;;;;;6.24;75.84668;95289.76;;;;
2019/05/01 00:12:06;;;;;;;26.8;18.45;;;;;;;6.24;75.84668;95289.76;;;;
2019/05/01 00:13:07;;;;;;;26.8;18.45;;;;;;;6.24;75.84668;95289.76;;;;
2019/05/01 00:14:08;;;;;;;26.8;18.45;;;;;;;6.24;75.84668;95289.76;;;;
2019/05/01 00:15:10;;;;;;;26.8;18.45;;;;;;;6.24;75.84668;95289.76;;;;
2019/05/01 00:16:11;;;;;;;26.8;18.45;;;;;;;6.24;75.84668;95289.76;;;;
2019/05/01 00:17:12;;;;;;;26.8;18.45;;;;;;;6.24;75.84668;95289.76;;;;
2019/05/01 00:18:13;;;;;;;26.8;18.45;;;;;;;6.24;75.84668;95289.76;;;;
2019/05/01 00:19:14;;;;;;;26.8;18.45;;;;;;;6.24;75.84668;95289.76;;;;
2019/05/01 00:20:15;;;;;;;26.8;18.45;;;;;;;6.24;75.84668;95289.76;;;;
2019/05/01 00:21:16;;;;;;;26.8;18.45;;;;;;;6.24;75.84668;95289.76;;;;
2019/05/01 00:22:17;;;;;;;26.8;18.45;;;;;;;6.24;75.84668;95289.76;;;;
2019/05/01 00:23:18;;;;;;;26.8;18.45;;;;;;;6.24;75.84668;95289.76;;;;
2019/05/01 00:24:19;;;;;;;26.8;18.45;;;;;;;6.24;75.84668;95289.76;;;;
2019/05/01 00:25:20;;;;;;;26.8;18.45;;;;;;;6.24;75.84668;95289.76;;;;
2019/05/01 00:26:21;;;;;;;26.8;18.45;;;;;;;6.24;75.84668;95289.76;;;;
2019/05/01 00:27:22;;;;;;;26.8;18.45;;;;;;;6.24;75.84668;95289.76;;;;
2019/05/01 00:28:23;;;;;;;26.8;18.45;;;;;;;6.24;75.84668;95289.76;;;;
2019/05/01 00:29:25;;;;;;;26.8;18.45;;;;;;;6.24;75.84668;95289.76;;;;
2019/05/01 00:30:26;;;;;;;26.8;18.45;;;;;;;6.24;75.84668;95289.76;;;;
2019/05/01 00:31:27;;;;;;;26.8;18.45;;;;;;;6.24;75.84668;95289.76;;;;
2019/05/01 00:32:28;;;;;;;27.25;20.05;;;;;;;5.63;76.56641;95279.75;;;;
2019/05/01 00:33:29;;;;;;;27.25;20.05;;;;;;;5.63;76.56641;95279.75;;;;
2019/05/01 00:34:30;;;;;;;27.25;20.05;;;;;;;5.63;76.56641;95279.75;;;;
2019/05/01 00:35:31;;;;;;;27.25;20.05;;;;;;;5.63;76.56641;95279.75;;;;
2019/05/01 00:36:32;;;;;;;27.25;20.05;;;;;;;5.63;76.56641;95279.75;;;;
2019/05/01 00:37:33;;;;;;;27.25;20.05;;;;;;;5.63;76.56641;95279.75;;;;
2019/05/01 00:38:35;;;;;;;27.25;20.05;;;;;;;5.63;76.56641;95279.75;;;;
2019/05/01 00:39:36;;;;;;;27.25;20.05;;;;;;;5.63;76.56641;95279.75;;;;
2019/05/01 00:40:37;;;;;;;27.25;20.05;;;;;;;5.63;76.56641;95279.75;;;;
2019/05/01 00:41:38;;;;;;;27.25;20.05;;;;;;;5.63;76.56641;95279.75;;;;
2019/05/01 00:42:39;;;;;;;27.25;20.05;;;;;;;5.63;76.56641;95279.75;;;;
2019/05/01 00:43:40;;;;;;;27.25;20.05;;;;;;;5.63;76.56641;95279.75;;;;
2019/05/01 00:44:41;;;;;;;27.25;20.05;;;;;;;5.63;76.56641;95279.75;;;;
2019/05/01 00:45:42;;;;;;;27.25;20.05;;;;;;;5.63;76.56641;95279.75;;;;
2019/05/01 00:46:43;;;;;;;27.25;20.05;;;;;;;5.63;76.56641;95279.75;;;;
2019/05/01 00:47:45;;;;;;;27.25;20.05;;;;;;;5.63;76.56641;95279.75;;;;
2019/05/01 00:48:46;;;;;;;27.25;20.05;;;;;;;5.63;76.56641;95279.75;;;;
2019/05/01 00:49:47;;;;;;;27.25;20.05;;;;;;;5.63;76.56641;95279.75;;;;
2019/05/01 00:50:48;;;;;;;27.25;20.05;;;;;;;5.63;76.56641;95279.75;;;;
2019/05/01 00:51:49;;;;;;;27.25;20.05;;;;;;;5.63;76.56641;95279.75;;;;
2019/05/01 00:52:50;;;;;;;27.25;20.05;;;;;;;5.63;76.56641;95279.75;;;;
2019/05/01 00:53:51;;;;;;;30;19.85;;;;;;;5.25;77.3125;95259.55;;;;
2019/05/01 00:55:41;;;;;;;30;19.85;;;;;;;5.25;77.3125;95259.55;;;;
2019/05/01 00:57:21;;;;;;;30;19.85;;;;;;;5.25;77.3125;95259.55;;;;
2019/05/01 00:58:31;;;;;;;30;19.85;;;;;;;5.25;77.3125;95259.55;;;;
2019/05/01 00:59:40;;;;;;;30;19.85;;;;;;;5.25;77.3125;95259.55;;;;
2019/05/01 01:00:48;;;;;;;30;19.85;;;;;;;5.25;77.3125;95259.55;;;;
2019/05/01 01:02:06;;;;;;;30;19.85;;;;;;;5.25;77.3125;95259.55;;;;
2019/05/01 01:03:08;;;;;;;30;19.85;;;;;;;5.25;77.3125;95259.55;;;;
2019/05/01 01:04:11;;;;;;;31.7;20.7;;;;;;;5.17;77.60352;95257.47;;;;
2019/05/01 01:05:12;;;;;;;31.7;20.7;;;;;;;5.17;77.60352;95257.47;;;;
2019/05/01 01:06:14;;;;;;;31.7;20.7;;;;;;;5.17;77.60352;95257.47;;;;
2019/05/01 01:07:15;;;;;;;31.7;20.7;;;;;;;5.17;77.60352;95257.47;;;;
2019/05/01 01:08:16;;;;;;;31.7;20.7;;;;;;;5.17;77.60352;95257.47;;;;
2019/05/01 01:09:17;;;;;;;31.7;20.7;;;;;;;5.17;77.60352;95257.47;;;;
2019/05/01 01:10:18;;;;;;;31.7;20.7;;;;;;;5.17;77.60352;95257.47;;;;
2019/05/01 01:11:19;;;;;;;31.7;20.7;;;;;;;5.17;77.60352;95257.47;;;;
2019/05/01 01:12:21;;;;;;;31.7;20.7;;;;;;;5.17;77.60352;95257.47;;;;
2019/05/01 01:13:22;;;;;;;31.7;20.7;;;;;;;5.17;77.60352;95257.47;;;;
2019/05/01 01:14:23;;;;;;;31.7;20.7;;;;;;;5.17;77.60352;95257.47;;;;
2019/05/01 01:15:24;;;;;;;31.7;20.7;;;;;;;5.17;77.60352;95257.47;;;;
2019/05/01 01:16:26;;;;;;;31.7;20.7;;;;;;;5.17;77.60352;95257.47;;;;
2019/05/01 01:17:27;;;;;;;31.7;20.7;;;;;;;5.17;77.60352;95257.47;;;;
2019/05/01 01:18:28;;;;;;;31.7;20.7;;;;;;;5.17;77.60352;95257.47;;;;
2019/05/01 01:19:29;;;;;;;31.7;20.7;;;;;;;5.17;77.60352;95257.47;;;;
2019/05/01 01:20:30;;;;;;;31.7;20.7;;;;;;;5.17;77.60352;95257.47;;;;
2019/05/01 01:21:31;;;;;;;31.7;20.7;;;;;;;5.17;77.60352;95257.47;;;;
2019/05/01 01:22:33;;;;;;;31.7;20.7;;;;;;;5.17;77.60352;95257.47;;;;
2019/05/01 01:23:34;;;;;;;31.7;20.7;;;;;;;5.17;77.60352;95257.47;;;;
2019/05/01 01:24:35;;;;;;;31.7;20.7;;;;;;;5.17;77.60352;95257.47;;;;
2019/05/01 01:25:36;;;;;;;31.3;20.75;;;;;;;4.93;78.19238;95238.92;;;;
2019/05/01 01:26:37;;;;;;;31.3;20.75;;;;;;;4.93;78.19238;95238.92;;;;
2019/05/01 01:27:38;;;;;;;31.3;20.75;;;;;;;4.93;78.19238;95238.92;;;;
2019/05/01 01:28:39;;;;;;;31.3;20.75;;;;;;;4.93;78.19238;95238.92;;;;
2019/05/01 01:29:41;;;;;;;31.3;20.75;;;;;;;4.93;78.19238;95238.92;;;;
2019/05/01 01:30:42;;;;;;;31.3;20.75;;;;;;;4.93;78.19238;95238.92;;;;
2019/05/01 01:31:43;;;;;;;31.3;20.75;;;;;;;4.93;78.19238;95238.92;;;;
2019/05/01 01:32:44;;;;;;;31.3;20.75;;;;;;;4.93;78.19238;95238.92;;;;
2019/05/01 01:33:45;;;;;;;31.3;20.75;;;;;;;4.93;78.19238;95238.92;;;;
2019/05/01 01:34:46;;;;;;;31.3;20.75;;;;;;;4.93;78.19238;95238.92;;;;
2019/05/01 01:35:48;;;;;;;31.3;20.75;;;;;;;4.93;78.19238;95238.92;;;;
2019/05/01 01:36:49;;;;;;;31.3;20.75;;;;;;;4.93;78.19238;95238.92;;;;
2019/05/01 01:37:50;;;;;;;31.3;20.75;;;;;;;4.93;78.19238;95238.92;;;;
2019/05/01 01:38:51;;;;;;;31.3;20.75;;;;;;;4.93;78.19238;95238.92;;;;
2019/05/01 01:39:52;;;;;;;31.3;20.75;;;;;;;4.93;78.19238;95238.92;;;;
2019/05/01 01:40:53;;;;;;;31.3;20.75;;;;;;;4.93;78.19238;95238.92;;;;
2019/05/01 01:41:55;;;;;;;31.3;20.75;;;;;;;4.93;78.19238;95238.92;;;;
2019/05/01 01:43:33;;;;;;;31.3;20.75;;;;;;;4.93;78.19238;95238.92;;;;
2019/05/01 01:45:14;;;;;;;31.3;20.75;;;;;;;4.93;78.19238;95238.92;;;;
2019/05/01 01:46:17;;;;;;;31.3;20.75;;;;;;;4.93;78.19238;95238.92;;;;
2019/05/01 01:47:18;;;;;;;27.9;18.2;;;;;;;4.59;78.47852;95236.77;;;;
2019/05/01 01:48:20;;;;;;;27.9;18.2;;;;;;;4.59;78.47852;95236.77;;;;
2019/05/01 01:49:21;;;;;;;27.9;18.2;;;;;;;4.59;78.47852;95236.77;;;;
2019/05/01 01:50:22;;;;;;;27.9;18.2;;;;;;;4.59;78.47852;95236.77;;;;
2019/05/01 01:51:23;;;;;;;27.9;18.2;;;;;;;4.59;78.47852;95236.77;;;;
2019/05/01 01:52:24;;;;;;;27.9;18.2;;;;;;;4.59;78.47852;95236.77;;;;
2019/05/01 01:53:25;;;;;;;27.9;18.2;;;;;;;4.59;78.47852;95236.77;;;;
2019/05/01 01:54:27;;;;;;;27.9;18.2;;;;;;;4.59;78.47852;95236.77;;;;
2019/05/01 01:55:28;;;;;;;27.9;18.2;;;;;;;4.59;78.47852;95236.77;;;;
2019/05/01 01:56:29;;;;;;;27.9;18.2;;;;;;;4.59;78.47852;95236.77;;;;
2019/05/01 01:57:30;;;;;;;27.9;18.2;;;;;;;4.59;78.47852;95236.77;;;;
2019/05/01 01:58:31;;;;;;;27.9;18.2;;;;;;;4.59;78.47852;95236.77;;;;
2019/05/01 01:59:32;;;;;;;27.9;18.2;;;;;;;4.59;78.47852;95236.77;;;;
2019/05/01 02:00:48;;;;;;;27.9;18.2;;;;;;;4.59;78.47852;95236.77;;;;
2019/05/01 02:02:29;;;;;;;27.9;18.2;;;;;;;4.59;78.47852;95236.77;;;;
2019/05/01 02:03:33;;;;;;;27.9;18.2;;;;;;;4.59;78.47852;95236.77;;;;
2019/05/01 02:04:45;;;;;;;27.9;18.2;;;;;;;4.59;78.47852;95236.77;;;;
2019/05/01 02:05:47;;;;;;;27.9;18.2;;;;;;;4.59;78.47852;95236.77;;;;
2019/05/01 02:06:49;;;;;;;27.9;18.2;;;;;;;4.59;78.47852;95236.77;;;;
2019/05/01 02:07:50;;;;;;;30.25;18.3;;;;;;;4.14;78.9668;95229.75;;;;
2019/05/01 02:08:51;;;;;;;30.25;18.3;;;;;;;4.14;78.9668;95229.75;;;;
2019/05/01 02:09:52;;;;;;;30.25;18.3;;;;;;;4.14;78.9668;95229.75;;;;
2019/05/01 02:10:53;;;;;;;30.25;18.3;;;;;;;4.14;78.9668;95229.75;;;;
2019/05/01 02:11:55;;;;;;;30.25;18.3;;;;;;;4.14;78.9668;95229.75;;;;
2019/05/01 02:12:56;;;;;;;30.25;18.3;;;;;;;4.14;78.9668;95229.75;;;;
2019/05/01 02:13:57;;;;;;;30.25;18.3;;;;;;;4.14;78.9668;95229.75;;;;
2019/05/01 02:14:58;;;;;;;30.25;18.3;;;;;;;4.14;78.9668;95229.75;;;;
2019/05/01 02:15:59;;;;;;;30.25;18.3;;;;;;;4.14;78.9668;95229.75;;;;
2019/05/01 02:17:01;;;;;;;30.25;18.3;;;;;;;4.14;78.9668;95229.75;;;;
2019/05/01 02:18:02;;;;;;;30.25;18.3;;;;;;;4.14;78.9668;95229.75;;;;
2019/05/01 02:19:03;;;;;;;31.7;19.1;;;;;;;3.9;79.1123;95221.73;;;;
2019/05/01 02:20:04;;;;;;;31.7;19.1;;;;;;;3.9;79.1123;95221.73;;;;
2019/05/01 02:21:06;;;;;;;31.7;19.1;;;;;;;3.9;79.1123;95221.73;;;;
2019/05/01 02:22:07;;;;;;;31.7;19.1;;;;;;;3.9;79.1123;95221.73;;;;
2019/05/01 02:23:08;;;;;;;31.7;19.1;;;;;;;3.9;79.1123;95221.73;;;;
2019/05/01 02:24:10;;;;;;;31.7;19.1;;;;;;;3.9;79.1123;95221.73;;;;
2019/05/01 02:25:11;;;;;;;31.7;19.1;;;;;;;3.9;79.1123;95221.73;;;;
2019/05/01 02:26:13;;;;;;;31.7;19.1;;;;;;;3.9;79.1123;95221.73;;;;
2019/05/01 02:27:20;;;;;;;31.7;19.1;;;;;;;3.9;79.1123;95221.73;;;;
2019/05/01 02:28:43;;;;;;;31.7;19.1;;;;;;;3.9;79.1123;95221.73;;;;
2019/05/01 02:29:49;;;;;;;27.45;18.4;;;;;;;3.77;79.29883;95212.3;;;;
2019/05/01 02:31:05;;;;;;;27.45;18.4;;;;;;;3.77;79.29883;95212.3;;;;
2019/05/01 02:32:07;;;;;;;27.45;18.4;;;;;;;3.77;79.29883;95212.3;;;;
2019/05/01 02:33:08;;;;;;;27.45;18.4;;;;;;;3.77;79.29883;95212.3;;;;
2019/05/01 02:34:10;;;;;;;27.45;18.4;;;;;;;3.77;79.29883;95212.3;;;;
2019/05/01 02:35:11;;;;;;;27.45;18.4;;;;;;;3.77;79.29883;95212.3;;;;
2019/05/01 02:36:12;;;;;;;27.45;18.4;;;;;;;3.77;79.29883;95212.3;;;;
2019/05/01 02:37:13;;;;;;;27.45;18.4;;;;;;;3.77;79.29883;95212.3;;;;
2019/05/01 02:38:14;;;;;;;27.45;18.4;;;;;;;3.77;79.29883;95212.3;;;;
2019/05/01 02:39:15;;;;;;;27.45;18.4;;;;;;;3.77;79.29883;95212.3;;;;
2019/05/01 02:40:17;;;;;;;28;18.6;;;;;;;3.59;79.62305;95195.95;;;;
2019/05/01 02:41:51;;;;;;;28;18.6;;;;;;;3.59;79.62305;95195.95;;;;
2019/05/01 02:42:52;;;;;;;28;18.6;;;;;;;3.59;79.62305;95195.95;;;;
2019/05/01 02:43:53;;;;;;;28;18.6;;;;;;;3.59;79.62305;95195.95;;;;
2019/05/01 02:44:58;;;;;;;28;18.6;;;;;;;3.59;79.62305;95195.95;;;;
2019/05/01 02:45:59;;;;;;;28;18.6;;;;;;;3.59;79.62305;95195.95;;;;
2019/05/01 02:47:00;;;;;;;28;18.6;;;;;;;3.59;79.62305;95195.95;;;;
2019/05/01 02:48:04;;;;;;;28;18.6;;;;;;;3.59;79.62305;95195.95;;;;
2019/05/01 02:49:05;;;;;;;28;18.6;;;;;;;3.59;79.62305;95195.95;;;;
2019/05/01 02:50:10;;;;;;;27.35;17.8;;;;;;;3.51;79.7666;95198.26;;;;
2019/05/01 02:51:11;;;;;;;27.35;17.8;;;;;;;3.51;79.7666;95198.26;;;;
2019/05/01 02:52:12;;;;;;;27.35;17.8;;;;;;;3.51;79.7666;95198.26;;;;
2019/05/01 02:53:13;;;;;;;27.35;17.8;;;;;;;3.51;79.7666;95198.26;;;;
2019/05/01 02:54:14;;;;;;;27.35;17.8;;;;;;;3.51;79.7666;95198.26;;;;
2019/05/01 02:55:30;;;;;;;27.35;17.8;;;;;;;3.51;79.7666;95198.26;;;;
2019/05/01 02:56:45;;;;;;;27.35;17.8;;;;;;;3.51;79.7666;95198.26;;;;
2019/05/01 02:57:47;;;;;;;27.35;17.8;;;;;;;3.51;79.7666;95198.26;;;;
2019/05/01 02:58:48;;;;;;;27.35;17.8;;;;;;;3.51;79.7666;95198.26;;;;
2019/05/01 02:59:49;;;;;;;27.35;17.8;;;;;;;3.51;79.7666;95198.26;;;;
2019/05/01 03:00:51;;;;;;;27.15;17.7;;;;;;;3.39;80.13086;95190.56;;;;
2019/05/01 03:01:52;;;;;;;27.15;17.7;;;;;;;3.39;80.13086;95190.56;;;;
2019/05/01 03:02:53;;;;;;;27.15;17.7;;;;;;;3.39;80.13086;95190.56;;;;
2019/05/01 03:03:54;;;;;;;27.15;17.7;;;;;;;3.39;80.13086;95190.56;;;;
2019/05/01 03:04:55;;;;;;;27.15;17.7;;;;;;;3.39;80.13086;95190.56;;;;
2019/05/01 03:05:56;;;;;;;27.15;17.7;;;;;;;3.39;80.13086;95190.56;;;;
2019/05/01 03:06:57;;;;;;;27.15;17.7;;;;;;;3.39;80.13086;95190.56;;;;
2019/05/01 03:07:58;;;;;;;27.15;17.7;;;;;;;3.39;80.13086;95190.56;;;;
2019/05/01 03:08:59;;;;;;;27.15;17.7;;;;;;;3.39;80.13086;95190.56;;;;
2019/05/01 03:10:00;;;;;;;27.15;17.7;;;;;;;3.39;80.13086;95190.56;;;;
2019/05/01 03:11:02;;;;;;;27.15;17.7;;;;;;;3.39;80.13086;95190.56;;;;
2019/05/01 03:12:03;;;;;;;31.65;19.05;;;;;;;3.34;80.32129;95199.58;;;;
2019/05/01 03:13:04;;;;;;;31.65;19.05;;;;;;;3.34;80.32129;95199.58;;;;
2019/05/01 03:14:05;;;;;;;31.65;19.05;;;;;;;3.34;80.32129;95199.58;;;;
2019/05/01 03:15:09;;;;;;;31.65;19.05;;;;;;;3.34;80.32129;95199.58;;;;
2019/05/01 03:16:10;;;;;;;31.65;19.05;;;;;;;3.34;80.32129;95199.58;;;;
2019/05/01 03:23:11;;;;;;;35.45;20.6;;;;;;;3.36;80.53711;95188.22;;;;
2019/05/01 03:24:17;;;;;;;35.45;20.6;;;;;;;3.36;80.53711;95188.22;;;;
2019/05/01 03:25:18;;;;;;;35.45;20.6;;;;;;;3.36;80.53711;95188.22;;;;
2019/05/01 03:26:19;;;;;;;35.45;20.6;;;;;;;3.36;80.53711;95188.22;;;;
2019/05/01 03:27:20;;;;;;;35.45;20.6;;;;;;;3.36;80.53711;95188.22;;;;
2019/05/01 03:28:21;;;;;;;35.45;20.6;;;;;;;3.36;80.53711;95188.22;;;;
2019/05/01 03:29:22;;;;;;;35.45;20.6;;;;;;;3.36;80.53711;95188.22;;;;
2019/05/01 03:30:23;;;;;;;35.45;20.6;;;;;;;3.36;80.53711;95188.22;;;;
2019/05/01 03:31:24;;;;;;;35.45;20.6;;;;;;;3.36;80.53711;95188.22;;;;
2019/05/01 03:32:26;;;;;;;30.95;18.35;;;;;;;3.52;80.77539;95200.84;;;;
2019/05/01 03:33:27;;;;;;;30.95;18.35;;;;;;;3.52;80.77539;95200.84;;;;
2019/05/01 03:34:28;;;;;;;30.95;18.35;;;;;;;3.52;80.77539;95200.84;;;;
2019/05/01 03:35:29;;;;;;;30.95;18.35;;;;;;;3.52;80.77539;95200.84;;;;
2019/05/01 03:36:30;;;;;;;30.95;18.35;;;;;;;3.52;80.77539;95200.84;;;;
2019/05/01 03:37:31;;;;;;;30.95;18.35;;;;;;;3.52;80.77539;95200.84;;;;
2019/05/01 03:38:32;;;;;;;30.95;18.35;;;;;;;3.52;80.77539;95200.84;;;;
2019/05/01 03:39:33;;;;;;;30.95;18.35;;;;;;;3.52;80.77539;95200.84;;;;
2019/05/01 03:40:34;;;;;;;30.95;18.35;;;;;;;3.52;80.77539;95200.84;;;;
2019/05/01 03:41:35;;;;;;;30.95;18.35;;;;;;;3.52;80.77539;95200.84;;;;
2019/05/01 03:42:36;;;;;;;30.95;18.35;;;;;;;3.52;80.77539;95200.84;;;;
2019/05/01 03:43:37;;;;;;;28;17.45;;;;;;;3.51;80.78418;95202.76;;;;
2019/05/01 03:44:38;;;;;;;28;17.45;;;;;;;3.51;80.78418;95202.76;;;;
2019/05/01 03:45:39;;;;;;;28;17.45;;;;;;;3.51;80.78418;95202.76;;;;
2019/05/01 03:46:41;;;;;;;28;17.45;;;;;;;3.51;80.78418;95202.76;;;;
2019/05/01 03:47:42;;;;;;;28;17.45;;;;;;;3.51;80.78418;95202.76;;;;
2019/05/01 03:48:43;;;;;;;28;17.45;;;;;;;3.51;80.78418;95202.76;;;;
2019/05/01 03:49:44;;;;;;;28;17.45;;;;;;;3.51;80.78418;95202.76;;;;
2019/05/01 03:50:45;;;;;;;28;17.45;;;;;;;3.51;80.78418;95202.76;;;;
2019/05/01 03:51:46;;;;;;;28;17.45;;;;;;;3.51;80.78418;95202.76;;;;
2019/05/01 03:52:47;;;;;;;28;17.45;;;;;;;3.51;80.78418;95202.76;;;;
2019/05/01 03:53:49;;;;;;;30.4;18.55;;;;;;;3.48;81.00977;95191.99;;;;
2019/05/01 03:54:50;;;;;;;30.4;18.55;;;;;;;3.48;81.00977;95191.99;;;;
2019/05/01 03:55:51;;;;;;;30.4;18.55;;;;;;;3.48;81.00977;95191.99;;;;
2019/05/01 03:56:52;;;;;;;30.4;18.55;;;;;;;3.48;81.00977;95191.99;;;;
2019/05/01 03:57:53;;;;;;;30.4;18.55;;;;;;;3.48;81.00977;95191.99;;;;
2019/05/01 03:58:54;;;;;;;30.4;18.55;;;;;;;3.48;81.00977;95191.99;;;;
2019/05/01 03:59:56;;;;;;;30.4;18.55;;;;;;;3.48;81.00977;95191.99;;;;
2019/05/01 04:01:13;;;;;;;30.4;18.55;;;;;;;3.48;81.00977;95191.99;;;;
2019/05/01 04:02:23;;;;;;;30.4;18.55;;;;;;;3.48;81.00977;95191.99;;;;
2019/05/01 04:03:28;;;;;;;30.4;18.55;;;;;;;3.48;81.00977;95191.99;;;;
2019/05/01 04:04:29;;;;;;;29.35;17.55;;;;;;;3.48;81.19922;95181.81;;;;
2019/05/01 04:05:30;;;;;;;29.35;17.55;;;;;;;3.48;81.19922;95181.81;;;;
2019/05/01 04:06:31;;;;;;;29.35;17.55;;;;;;;3.48;81.19922;95181.81;;;;
2019/05/01 04:07:33;;;;;;;29.35;17.55;;;;;;;3.48;81.19922;95181.81;;;;
2019/05/01 04:08:34;;;;;;;29.35;17.55;;;;;;;3.48;81.19922;95181.81;;;;
2019/05/01 04:09:35;;;;;;;29.35;17.55;;;;;;;3.48;81.19922;95181.81;;;;
2019/05/01 04:10:36;;;;;;;29.35;17.55;;;;;;;3.48;81.19922;95181.81;;;;
2019/05/01 04:11:37;;;;;;;29.35;17.55;;;;;;;3.48;81.19922;95181.81;;;;
2019/05/01 04:12:38;;;;;;;29.35;17.55;;;;;;;3.48;81.19922;95181.81;;;;
2019/05/01 04:13:39;;;;;;;29.35;17.55;;;;;;;3.48;81.19922;95181.81;;;;
2019/05/01 04:14:40;;;;;;;29.35;17.55;;;;;;;3.48;81.19922;95181.81;;;;
2019/05/01 04:15:41;;;;;;;25.95;17.1;;;;;;;3.61;81.50781;95185.41;;;;
2019/05/01 04:16:45;;;;;;;25.95;17.1;;;;;;;3.61;81.50781;95185.41;;;;
2019/05/01 04:17:51;;;;;;;25.95;17.1;;;;;;;3.61;81.50781;95185.41;;;;
2019/05/01 04:18:52;;;;;;;25.95;17.1;;;;;;;3.61;81.50781;95185.41;;;;
2019/05/01 04:19:53;;;;;;;25.95;17.1;;;;;;;3.61;81.50781;95185.41;;;;
2019/05/01 04:20:54;;;;;;;25.95;17.1;;;;;;;3.61;81.50781;95185.41;;;;
2019/05/01 04:22:03;;;;;;;25.95;17.1;;;;;;;3.61;81.50781;95185.41;;;;
2019/05/01 04:23:05;;;;;;;25.95;17.1;;;;;;;3.61;81.50781;95185.41;;;;
2019/05/01 04:24:06;;;;;;;25.95;17.1;;;;;;;3.61;81.50781;95185.41;;;;
2019/05/01 04:25:07;;;;;;;25.95;17.1;;;;;;;3.61;81.50781;95185.41;;;;
2019/05/01 04:26:08;;;;;;;25.55;16.05;;;;;;;3.67;81.53906;95185.11;;;;
2019/05/01 04:27:15;;;;;;;25.55;16.05;;;;;;;3.67;81.53906;95185.11;;;;
2019/05/01 04:28:35;;;;;;;25.55;16.05;;;;;;;3.67;81.53906;95185.11;;;;
2019/05/01 04:29:44;;;;;;;25.55;16.05;;;;;;;3.67;81.53906;95185.11;;;;
2019/05/01 04:35:58;;;;;;;25.55;16.05;;;;;;;3.67;81.53906;95185.11;;;;
2019/05/01 04:37:01;;;;;;;25.3;16.35;;;;;;;3.79;81.60449;95194.65;;;;
2019/05/01 04:38:02;;;;;;;25.3;16.35;;;;;;;3.79;81.60449;95194.65;;;;
2019/05/01 04:39:04;;;;;;;25.3;16.35;;;;;;;3.79;81.60449;95194.65;;;;
2019/05/01 04:40:05;;;;;;;25.3;16.35;;;;;;;3.79;81.60449;95194.65;;;;
2019/05/01 04:41:06;;;;;;;25.3;16.35;;;;;;;3.79;81.60449;95194.65;;;;
2019/05/01 04:42:07;;;;;;;25.3;16.35;;;;;;;3.79;81.60449;95194.65;;;;
2019/05/01 04:43:08;;;;;;;25.3;16.35;;;;;;;3.79;81.60449;95194.65;;;;
2019/05/01 04:44:10;;;;;;;25.3;16.35;;;;;;;3.79;81.60449;95194.65;;;;
2019/05/01 04:45:11;;;;;;;25.3;16.35;;;;;;;3.79;81.60449;95194.65;;;;
2019/05/01 04:46:12;;;;;;;25.3;16.35;;;;;;;3.79;81.60449;95194.65;;;;
2019/05/01 04:47:13;;;;;;;26.65;15.45;;;;;;;3.87;81.68164;95210.1;;;;
2019/05/01 04:48:14;;;;;;;26.65;15.45;;;;;;;3.87;81.68164;95210.1;;;;
2019/05/01 04:49:15;;;;;;;26.65;15.45;;;;;;;3.87;81.68164;95210.1;;;;
2019/05/01 04:50:16;;;;;;;26.65;15.45;;;;;;;3.87;81.68164;95210.1;;;;
2019/05/01 04:51:17;;;;;;;26.65;15.45;;;;;;;3.87;81.68164;95210.1;;;;
2019/05/01 04:52:18;;;;;;;26.65;15.45;;;;;;;3.87;81.68164;95210.1;;;;
2019/05/01 04:53:19;;;;;;;26.65;15.45;;;;;;;3.87;81.68164;95210.1;;;;
2019/05/01 04:54:20;;;;;;;26.65;15.45;;;;;;;3.87;81.68164;95210.1;;;;
2019/05/01 04:55:21;;;;;;;26.65;15.45;;;;;;;3.87;81.68164;95210.1;;;;
2019/05/01 04:56:23;;;;;;;26.65;15.45;;;;;;;3.87;81.68164;95210.1;;;;
2019/05/01 04:57:24;;;;;;;26.4;16.2;;;;;;;4.11;81.75781;95216.8;;;;
2019/05/01 04:58:25;;;;;;;26.4;16.2;;;;;;;4.11;81.75781;95216.8;;;;
2019/05/01 04:59:26;;;;;;;26.4;16.2;;;;;;;4.11;81.75781;95216.8;;;;
2019/05/01 05:00:27;;;;;;;26.4;16.2;;;;;;;4.11;81.75781;95216.8;;;;
2019/05/01 05:01:50;;;;;;;26.4;16.2;;;;;;;4.11;81.75781;95216.8;;;;
2019/05/01 05:02:57;;;;;;;26.4;16.2;;;;;;;4.11;81.75781;95216.8;;;;
2019/05/01 05:03:58;;;;;;;26.4;16.2;;;;;;;4.11;81.75781;95216.8;;;;
2019/05/01 05:04:59;;;;;;;26.4;16.2;;;;;;;4.11;81.75781;95216.8;;;;
2019/05/01 05:06:00;;;;;;;26.4;16.2;;;;;;;4.11;81.75781;95216.8;;;;
2019/05/01 05:07:01;;;;;;;26.4;16.2;;;;;;;4.11;81.75781;95216.8;;;;
2019/05/01 05:08:02;;;;;;;25.15;16.55;;;;;;;4.33;81.68359;95223.28;;;;
2019/05/01 05:09:03;;;;;;;25.15;16.55;;;;;;;4.33;81.68359;95223.28;;;;
2019/05/01 05:10:04;;;;;;;25.15;16.55;;;;;;;4.33;81.68359;95223.28;;;;
2019/05/01 05:11:09;;;;;;;25.15;16.55;;;;;;;4.33;81.68359;95223.28;;;;
2019/05/01 05:12:25;;;;;;;25.15;16.55;;;;;;;4.33;81.68359;95223.28;;;;
2019/05/01 05:13:33;;;;;;;25.15;16.55;;;;;;;4.33;81.68359;95223.28;;;;
2019/05/01 05:14:35;;;;;;;25.15;16.55;;;;;;;4.33;81.68359;95223.28;;;;
2019/05/01 05:16:17;;;;;;;25.15;16.55;;;;;;;4.33;81.68359;95223.28;;;;
2019/05/01 05:17:20;;;;;;;25.15;16.55;;;;;;;4.33;81.68359;95223.28;;;;
2019/05/01 05:18:21;;;;;;;25.15;16.55;;;;;;;4.33;81.68359;95223.28;;;;
2019/05/01 05:19:22;;;;;;;24.1;16.3;;;;;;;4.74;81.77246;95224.03;;;;
2019/05/01 05:20:24;;;;;;;24.1;16.3;;;;;;;4.74;81.77246;95224.03;;;;
2019/05/01 05:21:25;;;;;;;24.1;16.3;;;;;;;4.74;81.77246;95224.03;;;;
2019/05/01 05:22:26;;;;;;;24.1;16.3;;;;;;;4.74;81.77246;95224.03;;;;
2019/05/01 05:23:27;;;;;;;24.1;16.3;;;;;;;4.74;81.77246;95224.03;;;;
2019/05/01 05:24:28;;;;;;;24.1;16.3;;;;;;;4.74;81.77246;95224.03;;;;
2019/05/01 05:25:29;;;;;;;24.1;16.3;;;;;;;4.74;81.77246;95224.03;;;;
2019/05/01 05:26:31;;;;;;;24.1;16.3;;;;;;;4.74;81.77246;95224.03;;;;
2019/05/01 05:27:32;;;;;;;24.1;16.3;;;;;;;4.74;81.77246;95224.03;;;;
2019/05/01 05:28:33;;;;;;;24.1;16.3;;;;;;;4.74;81.77246;95224.03;;;;
2019/05/01 05:29:34;;;;;;;21.55;14.85;;;;;;;5.14;81.55469;95232.89;;;;
2019/05/01 05:30:35;;;;;;;21.55;14.85;;;;;;;5.14;81.55469;95232.89;;;;
2019/05/01 05:31:36;;;;;;;21.55;14.85;;;;;;;5.14;81.55469;95232.89;;;;
2019/05/01 05:32:38;;;;;;;21.55;14.85;;;;;;;5.14;81.55469;95232.89;;;;
2019/05/01 05:33:39;;;;;;;21.55;14.85;;;;;;;5.14;81.55469;95232.89;;;;
2019/05/01 05:34:40;;;;;;;21.55;14.85;;;;;;;5.14;81.55469;95232.89;;;;
2019/05/01 05:35:41;;;;;;;21.55;14.85;;;;;;;5.14;81.55469;95232.89;;;;
2019/05/01 05:36:42;;;;;;;21.55;14.85;;;;;;;5.14;81.55469;95232.89;;;;
2019/05/01 05:38:07;;;;;;;21.55;14.85;;;;;;;5.14;81.55469;95232.89;;;;
2019/05/01 05:39:17;;;;;;;21.55;14.85;;;;;;;5.14;81.55469;95232.89;;;;
2019/05/01 05:40:19;;;;;;;19.85;14.9;;;;;;;5.64;81.78613;95234.97;;;;
2019/05/01 05:41:21;;;;;;;19.85;14.9;;;;;;;5.64;81.78613;95234.97;;;;
2019/05/01 05:42:22;;;;;;;19.85;14.9;;;;;;;5.64;81.78613;95234.97;;;;
2019/05/01 05:43:23;;;;;;;19.85;14.9;;;;;;;5.64;81.78613;95234.97;;;;
2019/05/01 05:44:24;;;;;;;19.85;14.9;;;;;;;5.64;81.78613;95234.97;;;;
2019/05/01 05:45:25;;;;;;;19.85;14.9;;;;;;;5.64;81.78613;95234.97;;;;
2019/05/01 05:46:26;;;;;;;19.85;14.9;;;;;;;5.64;81.78613;95234.97;;;;
2019/05/01 05:47:27;;;;;;;19.85;14.9;;;;;;;5.64;81.78613;95234.97;;;;
2019/05/01 05:48:28;;;;;;;19.85;14.9;;;;;;;5.64;81.78613;95234.97;;;;
2019/05/01 05:49:29;;;;;;;19.85;14.9;;;;;;;5.64;81.78613;95234.97;;;;
2019/05/01 05:50:35;;;;;;;22.2;15.1;;;;;;;6.09;81.35156;95237.81;;;;
2019/05/01 05:51:43;;;;;;;22.2;15.1;;;;;;;6.09;81.35156;95237.81;;;;
2019/05/01 05:52:49;;;;;;;22.2;15.1;;;;;;;6.09;81.35156;95237.81;;;;
2019/05/01 05:53:51;;;;;;;22.2;15.1;;;;;;;6.09;81.35156;95237.81;;;;
2019/05/01 05:54:59;;;;;;;22.2;15.1;;;;;;;6.09;81.35156;95237.81;;;;
2019/05/01 05:56:00;;;;;;;22.2;15.1;;;;;;;6.09;81.35156;95237.81;;;;
2019/05/01 05:57:09;;;;;;;22.2;15.1;;;;;;;6.09;81.35156;95237.81;;;;
2019/05/01 05:58:16;;;;;;;22.2;15.1;;;;;;;6.09;81.35156;95237.81;;;;
2019/05/01 05:59:19;;;;;;;22.2;15.1;;;;;;;6.09;81.35156;95237.81;;;;
2019/05/01 06:00:31;;;;;;;22.2;15.1;;;;;;;6.09;81.35156;95237.81;;;;
2019/05/01 06:01:42;;;;;;;18.5;14.05;;;;;;;6.65;81.37305;95239.29;;;;
2019/05/01 06:02:52;;;;;;;18.5;14.05;;;;;;;6.65;81.37305;95239.29;;;;
2019/05/01 06:04:32;;;;;;;18.5;14.05;;;;;;;6.65;81.37305;95239.29;;;;
2019/05/01 06:05:50;;;;;;;18.5;14.05;;;;;;;6.65;81.37305;95239.29;;;;
2019/05/01 06:07:04;;;;;;;18.5;14.05;;;;;;;6.65;81.37305;95239.29;;;;
2019/05/01 06:08:15;;;;;;;18.5;14.05;;;;;;;6.65;81.37305;95239.29;;;;
2019/05/01 06:09:16;;;;;;;18.5;14.05;;;;;;;6.65;81.37305;95239.29;;;;
2019/05/01 06:10:23;;;;;;;18.5;14.05;;;;;;;6.65;81.37305;95239.29;;;;
2019/05/01 06:11:35;;;;;;;18.5;14.05;;;;;;;6.65;81.37305;95239.29;;;;
2019/05/01 06:12:44;;;;;;;20.09999;14.25;;;;;;;7.32;81.12793;95246.37;;;;
2019/05/01 06:14:09;;;;;;;20.09999;14.25;;;;;;;7.32;81.12793;95246.37;;;;
2019/05/01 06:15:18;;;;;;;20.09999;14.25;;;;;;;7.32;81.12793;95246.37;;;;
2019/05/01 06:16:26;;;;;;;20.09999;14.25;;;;;;;7.32;81.12793;95246.37;;;;
2019/05/01 06:18:38;;;;;;;20.09999;14.25;;;;;;;7.32;81.12793;95246.37;;;;